Forside
METAR-TAF:

METAR-TAF

Lufthavne :

Illinois Valley Regional Airport (Walter A. Duncan Field)

Peru / LaSalle, Illinois, USA

Breddekreds: 41-21-07N, længdekreds: 089-09-11W, højde: 199 m

Aktuelle vejr

Denne rapport blev lavet for 10 minutter siden, kl. 12:15 UTC
Vind 12 kt fra østsydøst
Temperatur 2°C
Fugtighed 93%
Tryk 1023 hPa
Sigt: 4.8 km
Brudte skyer i en højde af 300 ft
Brudte skyer i en højde af 3100 ft
Overskyet i en højde af 7000 ft
let regn

METAR: KVYS 241215Z AUTO 12012KT 3SM -RA BKN003 BKN031 OVC070 02/01 A3020 RMK AO2 T00160012

Tid: 06:25 (12:25 UTC)


TAF: fraværende

Vejrobservationer og prognoser fra mere end 4000 lufthavne (METAR og TAF).

De gule og røde prikker repræsenterer de meteorologiske stationer.

Flyt musen over at se navnet på stationen.

Så klik over at se vejr observationer og prognoser.

At skifte det kort: Klik på de grønne knapper med et sort kors for at zoome ind; på den grønne knap med en bindestreg for at zoome ud; eller på de grønne pile for tilstødende kort.


METAR-TAF: